sensor_id;sensor_type;location;lat;lon;timestamp;P1;durP1;ratioP1;P2;durP2;ratioP2
37203;SDS011;23098;48.054;10.636;2023-06-24T00:00:03;6.57;;;4.10;;
37203;SDS011;23098;48.054;10.636;2023-06-24T00:02:32;6.53;;;3.75;;
37203;SDS011;23098;48.054;10.636;2023-06-24T00:04:59;5.00;;;3.60;;
37203;SDS011;23098;48.054;10.636;2023-06-24T00:07:25;5.03;;;3.90;;
37203;SDS011;23098;48.054;10.636;2023-06-24T00:09:51;4.97;;;3.42;;
37203;SDS011;23098;48.054;10.636;2023-06-24T00:12:17;4.38;;;3.42;;
37203;SDS011;23098;48.054;10.636;2023-06-24T00:14:45;6.47;;;3.22;;
37203;SDS011;23098;48.054;10.636;2023-06-24T00:17:15;6.83;;;3.80;;
37203;SDS011;23098;48.054;10.636;2023-06-24T00:19:41;8.77;;;3.70;;
37203;SDS011;23098;48.054;10.636;2023-06-24T00:22:08;5.15;;;3.67;;
37203;SDS011;23098;48.054;10.636;2023-06-24T00:24:34;4.75;;;3.50;;
37203;SDS011;23098;48.054;10.636;2023-06-24T00:26:59;4.85;;;3.65;;
37203;SDS011;23098;48.054;10.636;2023-06-24T00:29:25;5.47;;;3.58;;
37203;SDS011;23098;48.054;10.636;2023-06-24T00:31:52;4.85;;;3.65;;
37203;SDS011;23098;48.054;10.636;2023-06-24T00:34:17;6.32;;;3.47;;
37203;SDS011;23098;48.054;10.636;2023-06-24T00:36:45;3.80;;;3.38;;
37203;SDS011;23098;48.054;10.636;2023-06-24T00:39:11;5.10;;;3.80;;
37203;SDS011;23098;48.054;10.636;2023-06-24T00:41:37;4.78;;;3.80;;
37203;SDS011;23098;48.054;10.636;2023-06-24T00:44:03;5.05;;;3.70;;
37203;SDS011;23098;48.054;10.636;2023-06-24T00:46:29;6.90;;;3.90;;
37203;SDS011;23098;48.054;10.636;2023-06-24T00:48:58;7.80;;;4.07;;
37203;SDS011;23098;48.054;10.636;2023-06-24T00:51:23;6.55;;;4.32;;
37203;SDS011;23098;48.054;10.636;2023-06-24T00:53:55;6.00;;;4.35;;
37203;SDS011;23098;48.054;10.636;2023-06-24T00:56:21;6.57;;;4.43;;
37203;SDS011;23098;48.054;10.636;2023-06-24T00:58:49;9.32;;;5.10;;
37203;SDS011;23098;48.054;10.636;2023-06-24T01:01:17;7.40;;;5.30;;
37203;SDS011;23098;48.054;10.636;2023-06-24T01:03:43;6.60;;;5.07;;
37203;SDS011;23098;48.054;10.636;2023-06-24T01:06:08;7.32;;;5.10;;
37203;SDS011;23098;48.054;10.636;2023-06-24T01:08:35;7.13;;;5.05;;
37203;SDS011;23098;48.054;10.636;2023-06-24T01:11:00;7.53;;;5.28;;
37203;SDS011;23098;48.054;10.636;2023-06-24T01:13:26;6.50;;;4.50;;
37203;SDS011;23098;48.054;10.636;2023-06-24T01:15:52;5.53;;;4.50;;
37203;SDS011;23098;48.054;10.636;2023-06-24T01:18:22;6.18;;;4.60;;
37203;SDS011;23098;48.054;10.636;2023-06-24T01:21:05;4.88;;;3.95;;
37203;SDS011;23098;48.054;10.636;2023-06-24T01:26:50;5.20;;;3.90;;
37203;SDS011;23098;48.054;10.636;2023-06-24T01:32:58;4.82;;;3.25;;
37203;SDS011;23098;48.054;10.636;2023-06-24T01:35:28;4.00;;;3.20;;
37203;SDS011;23098;48.054;10.636;2023-06-24T01:37:59;6.05;;;4.07;;
37203;SDS011;23098;48.054;10.636;2023-06-24T01:40:31;5.45;;;3.80;;
37203;SDS011;23098;48.054;10.636;2023-06-24T01:43:03;5.70;;;3.83;;
37203;SDS011;23098;48.054;10.636;2023-06-24T01:45:36;5.18;;;3.60;;
37203;SDS011;23098;48.054;10.636;2023-06-24T01:48:12;4.35;;;3.67;;
37203;SDS011;23098;48.054;10.636;2023-06-24T01:53:32;5.82;;;4.00;;
37203;SDS011;23098;48.054;10.636;2023-06-24T01:56:02;5.95;;;3.92;;
37203;SDS011;23098;48.054;10.636;2023-06-24T01:58:29;6.68;;;4.03;;
37203;SDS011;23098;48.054;10.636;2023-06-24T02:00:57;4.97;;;3.85;;
37203;SDS011;23098;48.054;10.636;2023-06-24T02:03:25;5.90;;;3.70;;
37203;SDS011;23098;48.054;10.636;2023-06-24T02:05:52;4.70;;;3.78;;
37203;SDS011;23098;48.054;10.636;2023-06-24T02:08:20;5.70;;;4.32;;
37203;SDS011;23098;48.054;10.636;2023-06-24T02:10:47;6.45;;;4.43;;
37203;SDS011;23098;48.054;10.636;2023-06-24T02:13:15;5.55;;;4.28;;
37203;SDS011;23098;48.054;10.636;2023-06-24T02:15:41;5.18;;;3.92;;
37203;SDS011;23098;48.054;10.636;2023-06-24T02:18:10;5.60;;;4.03;;
37203;SDS011;23098;48.054;10.636;2023-06-24T02:20:40;5.78;;;4.07;;
37203;SDS011;23098;48.054;10.636;2023-06-24T02:23:08;5.28;;;3.92;;
37203;SDS011;23098;48.054;10.636;2023-06-24T02:25:35;6.53;;;3.92;;
37203;SDS011;23098;48.054;10.636;2023-06-24T02:28:04;4.38;;;3.60;;
37203;SDS011;23098;48.054;10.636;2023-06-24T02:30:30;5.75;;;4.07;;
37203;SDS011;23098;48.054;10.636;2023-06-24T02:32:56;6.43;;;4.40;;
37203;SDS011;23098;48.054;10.636;2023-06-24T02:35:22;9.07;;;4.82;;
37203;SDS011;23098;48.054;10.636;2023-06-24T02:37:47;7.90;;;4.88;;
37203;SDS011;23098;48.054;10.636;2023-06-24T02:40:13;7.60;;;5.05;;
37203;SDS011;23098;48.054;10.636;2023-06-24T02:42:39;9.50;;;5.05;;
37203;SDS011;23098;48.054;10.636;2023-06-24T02:45:04;6.32;;;4.90;;
37203;SDS011;23098;48.054;10.636;2023-06-24T02:47:31;7.97;;;5.40;;
37203;SDS011;23098;48.054;10.636;2023-06-24T02:49:58;6.97;;;5.10;;
37203;SDS011;23098;48.054;10.636;2023-06-24T02:52:24;6.75;;;5.38;;
37203;SDS011;23098;48.054;10.636;2023-06-24T02:54:53;5.88;;;4.78;;
37203;SDS011;23098;48.054;10.636;2023-06-24T02:57:20;7.78;;;5.07;;
37203;SDS011;23098;48.054;10.636;2023-06-24T02:59:47;6.03;;;4.88;;
37203;SDS011;23098;48.054;10.636;2023-06-24T03:02:13;6.13;;;4.68;;
37203;SDS011;23098;48.054;10.636;2023-06-24T03:04:40;5.38;;;4.35;;
37203;SDS011;23098;48.054;10.636;2023-06-24T03:07:06;7.72;;;4.50;;
37203;SDS011;23098;48.054;10.636;2023-06-24T03:09:35;5.88;;;4.45;;
37203;SDS011;23098;48.054;10.636;2023-06-24T03:12:00;8.50;;;4.47;;
37203;SDS011;23098;48.054;10.636;2023-06-24T03:14:26;4.70;;;3.90;;
37203;SDS011;23098;48.054;10.636;2023-06-24T03:16:52;5.80;;;4.45;;
37203;SDS011;23098;48.054;10.636;2023-06-24T03:19:17;6.38;;;4.10;;
37203;SDS011;23098;48.054;10.636;2023-06-24T03:21:43;6.00;;;4.80;;
37203;SDS011;23098;48.054;10.636;2023-06-24T03:24:08;5.45;;;4.35;;
37203;SDS011;23098;48.054;10.636;2023-06-24T03:26:37;8.40;;;5.03;;
37203;SDS011;23098;48.054;10.636;2023-06-24T03:29:04;5.57;;;4.68;;
37203;SDS011;23098;48.054;10.636;2023-06-24T03:31:30;6.18;;;4.38;;
37203;SDS011;23098;48.054;10.636;2023-06-24T03:33:56;5.95;;;4.53;;
37203;SDS011;23098;48.054;10.636;2023-06-24T03:36:21;6.65;;;4.47;;
37203;SDS011;23098;48.054;10.636;2023-06-24T03:38:47;8.38;;;4.65;;
37203;SDS011;23098;48.054;10.636;2023-06-24T03:41:12;6.90;;;4.63;;
37203;SDS011;23098;48.054;10.636;2023-06-24T03:43:39;5.65;;;4.63;;
37203;SDS011;23098;48.054;10.636;2023-06-24T03:46:04;6.03;;;5.03;;
37203;SDS011;23098;48.054;10.636;2023-06-24T03:48:30;7.00;;;4.82;;
37203;SDS011;23098;48.054;10.636;2023-06-24T03:50:55;5.22;;;4.40;;
37203;SDS011;23098;48.054;10.636;2023-06-24T03:53:21;6.05;;;4.63;;
37203;SDS011;23098;48.054;10.636;2023-06-24T03:55:46;6.20;;;4.43;;
37203;SDS011;23098;48.054;10.636;2023-06-24T03:58:12;6.60;;;4.25;;
37203;SDS011;23098;48.054;10.636;2023-06-24T04:00:38;6.82;;;3.88;;
37203;SDS011;23098;48.054;10.636;2023-06-24T04:03:05;4.80;;;3.80;;
37203;SDS011;23098;48.054;10.636;2023-06-24T04:05:32;6.10;;;3.50;;
37203;SDS011;23098;48.054;10.636;2023-06-24T04:07:58;6.18;;;4.15;;
37203;SDS011;23098;48.054;10.636;2023-06-24T04:10:23;6.30;;;4.20;;
37203;SDS011;23098;48.054;10.636;2023-06-24T04:12:49;5.63;;;4.65;;
37203;SDS011;23098;48.054;10.636;2023-06-24T04:15:15;6.15;;;4.60;;
37203;SDS011;23098;48.054;10.636;2023-06-24T04:17:40;8.57;;;4.95;;
37203;SDS011;23098;48.054;10.636;2023-06-24T04:20:06;5.97;;;4.30;;
37203;SDS011;23098;48.054;10.636;2023-06-24T04:22:33;6.10;;;4.40;;
37203;SDS011;23098;48.054;10.636;2023-06-24T04:24:59;6.03;;;4.43;;
37203;SDS011;23098;48.054;10.636;2023-06-24T04:27:25;6.97;;;4.47;;
37203;SDS011;23098;48.054;10.636;2023-06-24T04:29:51;6.18;;;4.50;;
37203;SDS011;23098;48.054;10.636;2023-06-24T04:32:16;4.80;;;3.92;;
37203;SDS011;23098;48.054;10.636;2023-06-24T04:34:42;6.05;;;4.43;;
37203;SDS011;23098;48.054;10.636;2023-06-24T04:37:07;5.78;;;4.07;;
37203;SDS011;23098;48.054;10.636;2023-06-24T04:39:33;6.18;;;4.18;;
37203;SDS011;23098;48.054;10.636;2023-06-24T04:41:58;6.75;;;4.32;;
37203;SDS011;23098;48.054;10.636;2023-06-24T04:44:25;7.32;;;4.28;;
37203;SDS011;23098;48.054;10.636;2023-06-24T04:46:51;5.55;;;4.45;;
37203;SDS011;23098;48.054;10.636;2023-06-24T04:49:17;5.45;;;4.20;;
37203;SDS011;23098;48.054;10.636;2023-06-24T04:51:43;5.38;;;4.03;;
37203;SDS011;23098;48.054;10.636;2023-06-24T04:54:09;5.85;;;4.35;;
37203;SDS011;23098;48.054;10.636;2023-06-24T04:56:37;6.82;;;4.20;;
37203;SDS011;23098;48.054;10.636;2023-06-24T04:59:03;4.68;;;4.05;;
37203;SDS011;23098;48.054;10.636;2023-06-24T05:01:28;7.13;;;4.30;;
37203;SDS011;23098;48.054;10.636;2023-06-24T05:03:54;6.55;;;4.38;;
37203;SDS011;23098;48.054;10.636;2023-06-24T05:06:19;6.18;;;4.20;;
37203;SDS011;23098;48.054;10.636;2023-06-24T05:08:45;6.07;;;4.25;;
37203;SDS011;23098;48.054;10.636;2023-06-24T05:11:11;8.38;;;4.63;;
37203;SDS011;23098;48.054;10.636;2023-06-24T05:13:37;4.80;;;3.83;;
37203;SDS011;23098;48.054;10.636;2023-06-24T05:16:02;5.75;;;4.05;;
37203;SDS011;23098;48.054;10.636;2023-06-24T05:18:28;6.00;;;4.60;;
37203;SDS011;23098;48.054;10.636;2023-06-24T05:20:53;6.43;;;4.07;;
37203;SDS011;23098;48.054;10.636;2023-06-24T05:23:19;5.38;;;4.10;;
37203;SDS011;23098;48.054;10.636;2023-06-24T05:25:44;4.53;;;3.78;;
37203;SDS011;23098;48.054;10.636;2023-06-24T05:28:10;6.85;;;3.88;;
37203;SDS011;23098;48.054;10.636;2023-06-24T05:30:36;4.43;;;3.65;;
37203;SDS011;23098;48.054;10.636;2023-06-24T05:33:01;5.28;;;3.65;;
37203;SDS011;23098;48.054;10.636;2023-06-24T05:35:27;3.63;;;3.28;;
37203;SDS011;23098;48.054;10.636;2023-06-24T05:37:53;3.88;;;3.38;;
37203;SDS011;23098;48.054;10.636;2023-06-24T05:40:18;4.70;;;3.53;;
37203;SDS011;23098;48.054;10.636;2023-06-24T05:42:44;5.35;;;3.30;;
37203;SDS011;23098;48.054;10.636;2023-06-24T05:45:10;4.30;;;3.20;;
37203;SDS011;23098;48.054;10.636;2023-06-24T05:47:36;4.78;;;3.40;;
37203;SDS011;23098;48.054;10.636;2023-06-24T05:50:03;6.00;;;3.42;;
37203;SDS011;23098;48.054;10.636;2023-06-24T05:52:29;3.58;;;2.90;;
37203;SDS011;23098;48.054;10.636;2023-06-24T05:54:54;4.75;;;3.20;;
37203;SDS011;23098;48.054;10.636;2023-06-24T05:57:20;4.05;;;2.90;;
37203;SDS011;23098;48.054;10.636;2023-06-24T05:59:46;3.63;;;2.95;;
37203;SDS011;23098;48.054;10.636;2023-06-24T06:02:11;3.90;;;3.22;;
37203;SDS011;23098;48.054;10.636;2023-06-24T06:04:38;4.53;;;2.92;;
37203;SDS011;23098;48.054;10.636;2023-06-24T06:07:04;6.05;;;2.95;;
37203;SDS011;23098;48.054;10.636;2023-06-24T06:09:29;3.67;;;3.10;;
37203;SDS011;23098;48.054;10.636;2023-06-24T06:11:55;3.97;;;3.22;;
37203;SDS011;23098;48.054;10.636;2023-06-24T06:14:21;3.88;;;3.10;;
37203;SDS011;23098;48.054;10.636;2023-06-24T06:16:46;3.20;;;2.90;;
37203;SDS011;23098;48.054;10.636;2023-06-24T06:19:12;3.42;;;2.78;;
37203;SDS011;23098;48.054;10.636;2023-06-24T06:21:37;3.55;;;3.22;;
37203;SDS011;23098;48.054;10.636;2023-06-24T06:24:03;3.63;;;3.20;;
37203;SDS011;23098;48.054;10.636;2023-06-24T06:26:29;3.47;;;3.17;;
37203;SDS011;23098;48.054;10.636;2023-06-24T06:28:54;3.65;;;2.90;;
37203;SDS011;23098;48.054;10.636;2023-06-24T06:31:20;4.32;;;3.10;;
37203;SDS011;23098;48.054;10.636;2023-06-24T06:33:46;3.90;;;3.20;;
37203;SDS011;23098;48.054;10.636;2023-06-24T06:36:12;3.78;;;2.63;;
37203;SDS011;23098;48.054;10.636;2023-06-24T06:38:38;3.33;;;2.92;;
37203;SDS011;23098;48.054;10.636;2023-06-24T06:41:05;3.35;;;2.60;;
37203;SDS011;23098;48.054;10.636;2023-06-24T06:43:30;3.20;;;2.90;;
37203;SDS011;23098;48.054;10.636;2023-06-24T06:45:56;3.45;;;2.95;;
37203;SDS011;23098;48.054;10.636;2023-06-24T06:48:22;5.35;;;3.20;;
37203;SDS011;23098;48.054;10.636;2023-06-24T06:50:48;4.00;;;3.20;;
37203;SDS011;23098;48.054;10.636;2023-06-24T06:53:14;3.92;;;3.00;;
37203;SDS011;23098;48.054;10.636;2023-06-24T06:55:40;3.28;;;2.80;;
37203;SDS011;23098;48.054;10.636;2023-06-24T06:58:07;5.28;;;3.30;;
37203;SDS011;23098;48.054;10.636;2023-06-24T07:00:33;4.07;;;2.80;;
37203;SDS011;23098;48.054;10.636;2023-06-24T07:02:58;3.20;;;2.90;;
37203;SDS011;23098;48.054;10.636;2023-06-24T07:05:24;3.70;;;2.92;;
37203;SDS011;23098;48.054;10.636;2023-06-24T07:07:49;3.03;;;2.70;;
37203;SDS011;23098;48.054;10.636;2023-06-24T07:10:15;3.33;;;2.40;;
37203;SDS011;23098;48.054;10.636;2023-06-24T07:12:42;3.58;;;2.20;;
37203;SDS011;23098;48.054;10.636;2023-06-24T07:15:07;3.80;;;2.10;;
37203;SDS011;23098;48.054;10.636;2023-06-24T07:17:33;2.58;;;2.13;;
37203;SDS011;23098;48.054;10.636;2023-06-24T07:19:59;2.85;;;2.35;;
37203;SDS011;23098;48.054;10.636;2023-06-24T07:22:24;4.45;;;2.25;;
37203;SDS011;23098;48.054;10.636;2023-06-24T07:24:50;2.75;;;2.38;;
37203;SDS011;23098;48.054;10.636;2023-06-24T07:27:15;2.50;;;2.30;;
37203;SDS011;23098;48.054;10.636;2023-06-24T07:29:41;3.60;;;2.53;;
37203;SDS011;23098;48.054;10.636;2023-06-24T07:32:06;4.20;;;2.67;;
37203;SDS011;23098;48.054;10.636;2023-06-24T07:34:32;3.03;;;2.72;;
37203;SDS011;23098;48.054;10.636;2023-06-24T07:36:58;3.33;;;3.03;;
37203;SDS011;23098;48.054;10.636;2023-06-24T07:39:23;4.38;;;2.92;;
37203;SDS011;23098;48.054;10.636;2023-06-24T07:41:49;5.50;;;2.90;;
37203;SDS011;23098;48.054;10.636;2023-06-24T07:44:15;3.58;;;2.90;;
37203;SDS011;23098;48.054;10.636;2023-06-24T07:46:41;4.35;;;3.35;;
37203;SDS011;23098;48.054;10.636;2023-06-24T07:49:06;4.63;;;2.83;;
37203;SDS011;23098;48.054;10.636;2023-06-24T07:51:32;3.53;;;3.08;;
37203;SDS011;23098;48.054;10.636;2023-06-24T07:54:00;4.03;;;2.97;;
37203;SDS011;23098;48.054;10.636;2023-06-24T07:56:25;3.85;;;3.10;;
37203;SDS011;23098;48.054;10.636;2023-06-24T07:58:51;5.90;;;3.45;;
37203;SDS011;23098;48.054;10.636;2023-06-24T08:01:16;4.72;;;3.60;;
37203;SDS011;23098;48.054;10.636;2023-06-24T08:03:42;5.18;;;3.60;;
37203;SDS011;23098;48.054;10.636;2023-06-24T08:06:07;4.68;;;3.60;;
37203;SDS011;23098;48.054;10.636;2023-06-24T08:08:33;4.00;;;3.15;;
37203;SDS011;23098;48.054;10.636;2023-06-24T08:10:58;3.97;;;3.58;;
37203;SDS011;23098;48.054;10.636;2023-06-24T08:13:24;6.43;;;3.83;;
37203;SDS011;23098;48.054;10.636;2023-06-24T08:15:49;8.93;;;3.95;;
37203;SDS011;23098;48.054;10.636;2023-06-24T08:18:15;5.63;;;3.90;;
37203;SDS011;23098;48.054;10.636;2023-06-24T08:20:40;5.60;;;3.70;;
37203;SDS011;23098;48.054;10.636;2023-06-24T08:23:06;5.97;;;4.10;;
37203;SDS011;23098;48.054;10.636;2023-06-24T08:25:32;7.47;;;4.22;;
37203;SDS011;23098;48.054;10.636;2023-06-24T08:27:57;5.75;;;3.97;;
37203;SDS011;23098;48.054;10.636;2023-06-24T08:30:22;6.60;;;3.90;;
37203;SDS011;23098;48.054;10.636;2023-06-24T08:32:48;5.15;;;3.67;;
37203;SDS011;23098;48.054;10.636;2023-06-24T08:35:14;5.88;;;3.70;;
37203;SDS011;23098;48.054;10.636;2023-06-24T08:37:39;7.13;;;3.97;;
37203;SDS011;23098;48.054;10.636;2023-06-24T08:40:06;4.65;;;3.55;;
37203;SDS011;23098;48.054;10.636;2023-06-24T08:42:33;4.88;;;4.00;;
37203;SDS011;23098;48.054;10.636;2023-06-24T08:44:59;4.45;;;3.67;;
37203;SDS011;23098;48.054;10.636;2023-06-24T08:47:24;6.00;;;4.57;;
37203;SDS011;23098;48.054;10.636;2023-06-24T08:49:53;4.82;;;3.90;;
37203;SDS011;23098;48.054;10.636;2023-06-24T08:52:24;4.30;;;3.80;;
37203;SDS011;23098;48.054;10.636;2023-06-24T08:54:51;6.55;;;3.90;;
37203;SDS011;23098;48.054;10.636;2023-06-24T08:57:20;5.72;;;3.92;;
37203;SDS011;23098;48.054;10.636;2023-06-24T08:59:45;4.63;;;3.80;;
37203;SDS011;23098;48.054;10.636;2023-06-24T09:02:11;5.20;;;4.15;;
37203;SDS011;23098;48.054;10.636;2023-06-24T09:04:38;5.38;;;4.30;;
37203;SDS011;23098;48.054;10.636;2023-06-24T09:07:05;4.75;;;4.18;;
37203;SDS011;23098;48.054;10.636;2023-06-24T09:09:30;5.40;;;4.10;;
37203;SDS011;23098;48.054;10.636;2023-06-24T09:11:57;5.50;;;3.65;;
37203;SDS011;23098;48.054;10.636;2023-06-24T09:14:25;5.05;;;3.33;;
37203;SDS011;23098;48.054;10.636;2023-06-24T09:16:55;6.18;;;4.15;;
37203;SDS011;23098;48.054;10.636;2023-06-24T09:19:22;4.60;;;3.97;;
37203;SDS011;23098;48.054;10.636;2023-06-24T09:21:48;5.80;;;4.20;;
37203;SDS011;23098;48.054;10.636;2023-06-24T09:24:14;5.72;;;4.43;;
37203;SDS011;23098;48.054;10.636;2023-06-24T09:26:41;7.00;;;4.15;;
37203;SDS011;23098;48.054;10.636;2023-06-24T09:29:09;5.10;;;3.88;;
37203;SDS011;23098;48.054;10.636;2023-06-24T09:31:35;5.25;;;4.28;;
37203;SDS011;23098;48.054;10.636;2023-06-24T09:34:12;6.28;;;4.05;;
37203;SDS011;23098;48.054;10.636;2023-06-24T09:36:41;4.85;;;3.40;;
37203;SDS011;23098;48.054;10.636;2023-06-24T09:39:08;6.32;;;3.75;;
37203;SDS011;23098;48.054;10.636;2023-06-24T09:41:34;4.38;;;3.90;;
37203;SDS011;23098;48.054;10.636;2023-06-24T09:44:00;3.50;;;3.20;;
37203;SDS011;23098;48.054;10.636;2023-06-24T09:46:25;4.63;;;3.90;;
37203;SDS011;23098;48.054;10.636;2023-06-24T09:48:53;4.15;;;3.60;;
37203;SDS011;23098;48.054;10.636;2023-06-24T09:51:18;7.10;;;3.65;;
37203;SDS011;23098;48.054;10.636;2023-06-24T09:53:44;4.78;;;3.70;;
37203;SDS011;23098;48.054;10.636;2023-06-24T09:56:10;4.50;;;3.78;;
37203;SDS011;23098;48.054;10.636;2023-06-24T09:58:40;4.65;;;3.78;;
37203;SDS011;23098;48.054;10.636;2023-06-24T10:01:09;5.15;;;4.10;;
37203;SDS011;23098;48.054;10.636;2023-06-24T10:03:35;5.13;;;3.80;;
37203;SDS011;23098;48.054;10.636;2023-06-24T10:06:02;5.07;;;3.85;;
37203;SDS011;23098;48.054;10.636;2023-06-24T10:08:29;4.93;;;3.80;;
37203;SDS011;23098;48.054;10.636;2023-06-24T10:10:55;6.20;;;4.30;;
37203;SDS011;23098;48.054;10.636;2023-06-24T10:13:21;6.22;;;4.30;;
37203;SDS011;23098;48.054;10.636;2023-06-24T10:15:48;7.53;;;4.22;;
37203;SDS011;23098;48.054;10.636;2023-06-24T10:21:06;5.25;;;4.32;;
37203;SDS011;23098;48.054;10.636;2023-06-24T10:23:33;5.18;;;4.13;;
37203;SDS011;23098;48.054;10.636;2023-06-24T10:26:26;6.10;;;4.43;;
37203;SDS011;23098;48.054;10.636;2023-06-24T10:39:59;4.10;;;3.70;;
37203;SDS011;23098;48.054;10.636;2023-06-24T10:42:58;4.53;;;3.58;;
37203;SDS011;23098;48.054;10.636;2023-06-24T10:45:25;4.25;;;3.38;;
37203;SDS011;23098;48.054;10.636;2023-06-24T10:47:51;3.97;;;3.58;;
37203;SDS011;23098;48.054;10.636;2023-06-24T10:50:25;5.30;;;3.92;;
37203;SDS011;23098;48.054;10.636;2023-06-24T10:52:52;5.00;;;4.03;;
37203;SDS011;23098;48.054;10.636;2023-06-24T10:55:23;4.60;;;3.90;;
37203;SDS011;23098;48.054;10.636;2023-06-24T10:57:52;4.90;;;3.53;;
37203;SDS011;23098;48.054;10.636;2023-06-24T11:00:19;3.80;;;3.40;;
37203;SDS011;23098;48.054;10.636;2023-06-24T11:02:46;6.97;;;3.67;;
37203;SDS011;23098;48.054;10.636;2023-06-24T11:05:11;4.55;;;3.70;;
37203;SDS011;23098;48.054;10.636;2023-06-24T11:07:37;3.75;;;3.35;;
37203;SDS011;23098;48.054;10.636;2023-06-24T11:10:04;6.28;;;3.70;;
37203;SDS011;23098;48.054;10.636;2023-06-24T11:12:33;4.05;;;3.40;;
37203;SDS011;23098;48.054;10.636;2023-06-24T11:15:08;5.15;;;3.83;;
37203;SDS011;23098;48.054;10.636;2023-06-24T11:17:36;4.30;;;3.40;;
37203;SDS011;23098;48.054;10.636;2023-06-24T11:20:06;6.82;;;4.53;;
37203;SDS011;23098;48.054;10.636;2023-06-24T11:22:33;4.57;;;3.70;;
37203;SDS011;23098;48.054;10.636;2023-06-24T11:24:59;6.22;;;4.22;;
37203;SDS011;23098;48.054;10.636;2023-06-24T11:27:25;6.82;;;4.00;;
37203;SDS011;23098;48.054;10.636;2023-06-24T11:29:55;5.93;;;3.93;;
37203;SDS011;23098;48.054;10.636;2023-06-24T11:32:39;4.95;;;3.92;;
37203;SDS011;23098;48.054;10.636;2023-06-24T11:35:07;4.00;;;3.60;;
37203;SDS011;23098;48.054;10.636;2023-06-24T11:37:34;4.72;;;3.70;;
37203;SDS011;23098;48.054;10.636;2023-06-24T11:40:01;4.90;;;3.78;;
37203;SDS011;23098;48.054;10.636;2023-06-24T11:42:34;4.90;;;3.85;;
37203;SDS011;23098;48.054;10.636;2023-06-24T11:45:05;4.53;;;3.97;;
37203;SDS011;23098;48.054;10.636;2023-06-24T11:47:32;4.78;;;3.58;;
37203;SDS011;23098;48.054;10.636;2023-06-24T11:49:59;5.38;;;3.47;;
37203;SDS011;23098;48.054;10.636;2023-06-24T11:58:07;3.67;;;3.17;;
37203;SDS011;23098;48.054;10.636;2023-06-24T12:00:43;3.83;;;3.42;;
37203;SDS011;23098;48.054;10.636;2023-06-24T12:03:11;5.15;;;3.33;;
37203;SDS011;23098;48.054;10.636;2023-06-24T12:05:37;3.50;;;3.20;;
37203;SDS011;23098;48.054;10.636;2023-06-24T12:08:05;4.22;;;3.50;;
37203;SDS011;23098;48.054;10.636;2023-06-24T12:10:33;6.03;;;3.83;;
37203;SDS011;23098;48.054;10.636;2023-06-24T12:13:00;5.57;;;3.92;;
37203;SDS011;23098;48.054;10.636;2023-06-24T12:15:27;5.75;;;3.80;;
37203;SDS011;23098;48.054;10.636;2023-06-24T12:17:53;6.00;;;3.53;;
37203;SDS011;23098;48.054;10.636;2023-06-24T12:20:19;4.90;;;3.40;;
37203;SDS011;23098;48.054;10.636;2023-06-24T12:22:46;5.10;;;3.03;;
37203;SDS011;23098;48.054;10.636;2023-06-24T12:25:13;3.67;;;3.30;;
37203;SDS011;23098;48.054;10.636;2023-06-24T12:27:39;3.97;;;3.45;;
37203;SDS011;23098;48.054;10.636;2023-06-24T12:30:08;3.33;;;2.85;;
37203;SDS011;23098;48.054;10.636;2023-06-24T12:32:34;3.65;;;3.25;;
37203;SDS011;23098;48.054;10.636;2023-06-24T12:35:00;5.22;;;3.20;;
37203;SDS011;23098;48.054;10.636;2023-06-24T12:37:30;5.22;;;3.20;;
37203;SDS011;23098;48.054;10.636;2023-06-24T12:39:57;4.85;;;3.70;;
37203;SDS011;23098;48.054;10.636;2023-06-24T12:42:23;5.50;;;3.60;;
37203;SDS011;23098;48.054;10.636;2023-06-24T12:44:49;4.45;;;3.50;;
37203;SDS011;23098;48.054;10.636;2023-06-24T12:47:15;5.85;;;3.45;;
37203;SDS011;23098;48.054;10.636;2023-06-24T12:49:40;5.82;;;3.35;;
37203;SDS011;23098;48.054;10.636;2023-06-24T12:52:06;5.97;;;3.33;;
37203;SDS011;23098;48.054;10.636;2023-06-24T12:54:32;5.28;;;3.70;;
37203;SDS011;23098;48.054;10.636;2023-06-24T12:56:57;3.58;;;3.05;;
37203;SDS011;23098;48.054;10.636;2023-06-24T12:59:23;4.75;;;3.10;;
37203;SDS011;23098;48.054;10.636;2023-06-24T13:01:49;4.35;;;3.28;;
37203;SDS011;23098;48.054;10.636;2023-06-24T13:04:14;3.50;;;3.13;;
37203;SDS011;23098;48.054;10.636;2023-06-24T13:06:42;3.55;;;2.90;;
37203;SDS011;23098;48.054;10.636;2023-06-24T13:09:07;6.70;;;3.72;;
37203;SDS011;23098;48.054;10.636;2023-06-24T13:11:33;3.75;;;3.33;;
37203;SDS011;23098;48.054;10.636;2023-06-24T13:13:58;3.80;;;3.30;;
37203;SDS011;23098;48.054;10.636;2023-06-24T13:16:24;4.05;;;3.22;;
37203;SDS011;23098;48.054;10.636;2023-06-24T13:18:49;3.53;;;3.22;;
37203;SDS011;23098;48.054;10.636;2023-06-24T13:21:15;4.72;;;3.40;;
37203;SDS011;23098;48.054;10.636;2023-06-24T13:23:40;5.03;;;3.35;;
37203;SDS011;23098;48.054;10.636;2023-06-24T13:26:06;4.13;;;3.30;;
37203;SDS011;23098;48.054;10.636;2023-06-24T13:28:32;4.82;;;3.13;;
37203;SDS011;23098;48.054;10.636;2023-06-24T13:30:58;3.30;;;3.00;;
37203;SDS011;23098;48.054;10.636;2023-06-24T13:33:23;3.83;;;3.33;;
37203;SDS011;23098;48.054;10.636;2023-06-24T13:35:49;5.10;;;3.38;;
37203;SDS011;23098;48.054;10.636;2023-06-24T13:38:16;3.95;;;2.85;;
37203;SDS011;23098;48.054;10.636;2023-06-24T13:40:41;5.28;;;3.05;;
37203;SDS011;23098;48.054;10.636;2023-06-24T13:43:07;4.90;;;3.35;;
37203;SDS011;23098;48.054;10.636;2023-06-24T13:45:32;3.28;;;2.95;;
37203;SDS011;23098;48.054;10.636;2023-06-24T13:47:58;3.42;;;3.10;;
37203;SDS011;23098;48.054;10.636;2023-06-24T13:50:23;3.17;;;2.80;;
37203;SDS011;23098;48.054;10.636;2023-06-24T13:52:49;4.80;;;3.47;;
37203;SDS011;23098;48.054;10.636;2023-06-24T13:55:14;3.63;;;3.03;;
37203;SDS011;23098;48.054;10.636;2023-06-24T13:57:40;3.53;;;3.00;;
37203;SDS011;23098;48.054;10.636;2023-06-24T14:00:06;3.28;;;2.97;;
37203;SDS011;23098;48.054;10.636;2023-06-24T14:02:33;9.38;;;3.20;;
37203;SDS011;23098;48.054;10.636;2023-06-24T14:04:59;4.50;;;3.00;;
37203;SDS011;23098;48.054;10.636;2023-06-24T14:07:25;4.25;;;3.08;;
37203;SDS011;23098;48.054;10.636;2023-06-24T14:09:50;4.47;;;3.10;;
37203;SDS011;23098;48.054;10.636;2023-06-24T14:12:16;4.28;;;2.92;;
37203;SDS011;23098;48.054;10.636;2023-06-24T14:14:41;3.25;;;2.95;;
37203;SDS011;23098;48.054;10.636;2023-06-24T14:17:07;4.95;;;3.03;;
37203;SDS011;23098;48.054;10.636;2023-06-24T14:19:37;4.40;;;3.13;;
37203;SDS011;23098;48.054;10.636;2023-06-24T14:22:06;4.05;;;3.30;;
37203;SDS011;23098;48.054;10.636;2023-06-24T14:24:32;3.65;;;3.03;;
37203;SDS011;23098;48.054;10.636;2023-06-24T14:26:58;5.75;;;3.25;;
37203;SDS011;23098;48.054;10.636;2023-06-24T14:29:25;5.53;;;3.28;;
37203;SDS011;23098;48.054;10.636;2023-06-24T14:31:51;6.05;;;3.40;;
37203;SDS011;23098;48.054;10.636;2023-06-24T14:34:17;4.63;;;3.65;;
37203;SDS011;23098;48.054;10.636;2023-06-24T14:36:43;3.13;;;2.70;;
37203;SDS011;23098;48.054;10.636;2023-06-24T14:39:09;3.50;;;3.05;;
37203;SDS011;23098;48.054;10.636;2023-06-24T14:41:37;4.68;;;3.05;;
37203;SDS011;23098;48.054;10.636;2023-06-24T14:44:02;4.85;;;3.53;;
37203;SDS011;23098;48.054;10.636;2023-06-24T14:46:28;5.18;;;3.15;;
37203;SDS011;23098;48.054;10.636;2023-06-24T14:48:54;3.35;;;3.05;;
37203;SDS011;23098;48.054;10.636;2023-06-24T14:51:19;3.95;;;3.53;;
37203;SDS011;23098;48.054;10.636;2023-06-24T14:53:45;4.97;;;3.15;;
37203;SDS011;23098;48.054;10.636;2023-06-24T14:56:10;3.60;;;3.10;;
37203;SDS011;23098;48.054;10.636;2023-06-24T14:58:36;3.78;;;2.90;;